Time;durP1;ratioP1;P1;durP2;ratioP2;P2;SDS_P1;SDS_P2;PMS_P1;PMS_P2;Temp;Humidity;BMP_temperature;BMP_pressure;BME280_temperature;BME280_humidity;BME280_pressure;Samples;Min_cycle;Max_cycle;Signal;HPM_P1;HPM_P2
2023/11/27 00:00:38;;;;;;;26.40;15.52;;;7.00;99.90;;;;;;5121536;27;20207;-47
2023/11/27 00:03:04;;;;;;;29.52;15.77;;;7.00;99.90;;;;;;5140036;27;20187;-46
2023/11/27 00:05:30;;;;;;;31.08;16.60;;;7.00;99.90;;;;;;5139233;27;20191;-50
2023/11/27 00:07:56;;;;;;;27.92;16.65;;;7.00;99.90;;;;;;5137155;27;20223;-47
2023/11/27 00:10:22;;;;;;;32.90;17.33;;;7.00;99.90;;;;;;5142049;27;20291;-48
2023/11/27 00:12:48;;;;;;;32.63;17.80;;;7.00;99.90;;;;;;5139567;27;20660;-54
2023/11/27 00:15:15;;;;;;;33.85;19.02;;;6.90;99.90;;;;;;5121752;27;20643;-48
2023/11/27 00:17:41;;;;;;;39.70;19.65;;;6.90;99.90;;;;;;5140706;27;20700;-51
2023/11/27 00:20:09;;;;;;;36.63;19.52;;;6.90;99.90;;;;;;5140894;27;20180;-46
2023/11/27 00:22:36;;;;;;;40.63;19.48;;;6.90;99.90;;;;;;5140965;27;20198;-46
2023/11/27 00:25:02;;;;;;;42.78;19.88;;;6.90;99.90;;;;;;5139000;27;20176;-48
2023/11/27 00:27:28;;;;;;;37.92;20.02;;;6.80;99.90;;;;;;5139568;27;20200;-47
2023/11/27 00:29:54;;;;;;;34.60;20.10;;;6.80;99.90;;;;;;5121444;27;20213;-48
2023/11/27 00:32:20;;;;;;;42.17;22.15;;;6.80;99.90;;;;;;5139695;27;21019;-48
2023/11/27 00:34:46;;;;;;;41.97;22.15;;;6.80;99.90;;;;;;5140914;27;20183;-47
2023/11/27 00:37:12;;;;;;;36.17;21.23;;;6.80;99.90;;;;;;5139681;27;20347;-50
2023/11/27 00:39:38;;;;;;;38.03;22.58;;;6.70;99.90;;;;;;5122405;27;20238;-49
2023/11/27 00:42:04;;;;;;;46.95;23.27;;;6.70;99.90;;;;;;5140665;27;20212;-46
2023/11/27 00:44:30;;;;;;;45.38;23.70;;;6.70;99.90;;;;;;5139585;27;20195;-52
2023/11/27 00:46:56;;;;;;;45.90;23.67;;;6.70;99.90;;;;;;5122047;27;20188;-48
2023/11/27 00:49:22;;;;;;;42.53;24.48;;;6.70;99.90;;;;;;5139189;27;20580;-45
2023/11/27 00:51:48;;;;;;;42.15;24.45;;;6.70;99.90;;;;;;5120765;27;20198;-45
2023/11/27 00:54:14;;;;;;;45.22;26.88;;;6.70;99.90;;;;;;5122767;27;20188;-48
2023/11/27 00:56:40;;;;;;;40.10;25.48;;;6.70;99.90;;;;;;5121433;27;20205;-47
2023/11/27 00:59:07;;;;;;;44.83;25.95;;;6.70;99.90;;;;;;5123272;27;20228;-52
2023/11/27 01:01:33;;;;;;;55.75;27.88;;;6.70;99.90;;;;;;5120384;27;20187;-51
2023/11/27 01:03:59;;;;;;;56.00;30.13;;;6.70;99.90;;;;;;5106260;27;20602;-50
2023/11/27 01:06:25;;;;;;;47.28;29.45;;;6.70;99.90;;;;;;5122165;27;20199;-51
2023/11/27 01:08:51;;;;;;;50.42;29.35;;;6.70;99.90;;;;;;5121017;27;20330;-50
2023/11/27 01:11:17;;;;;;;49.85;30.45;;;6.70;99.90;;;;;;5104130;27;20184;-45
2023/11/27 01:13:43;;;;;;;52.05;30.98;;;6.70;99.90;;;;;;5139881;27;20203;-47
2023/11/27 01:16:09;;;;;;;59.35;31.73;;;6.70;99.90;;;;;;5121470;27;20283;-46
2023/11/27 01:18:35;;;;;;;62.35;32.75;;;6.80;99.90;;;;;;5140699;27;20294;-46
2023/11/27 01:21:01;;;;;;;50.53;32.28;;;6.80;99.90;;;;;;5138386;27;20191;-51
2023/11/27 01:23:28;;;;;;;64.40;34.95;;;6.80;99.90;;;;;;5138183;27;20184;-47
2023/11/27 01:25:54;;;;;;;57.33;33.85;;;6.70;99.90;;;;;;5120247;27;20188;-46
2023/11/27 01:28:19;;;;;;;59.35;35.30;;;6.80;99.90;;;;;;5140147;27;20207;-46
2023/11/27 01:30:45;;;;;;;65.80;36.55;;;6.80;99.90;;;;;;5139158;27;20215;-48
2023/11/27 01:33:12;;;;;;;61.35;35.92;;;6.80;99.90;;;;;;5139739;27;20271;-49
2023/11/27 01:35:38;;;;;;;55.40;34.15;;;6.80;99.90;;;;;;5121835;27;20594;-47
2023/11/27 01:38:04;;;;;;;60.25;34.50;;;6.80;99.90;;;;;;5140642;27;20196;-47
2023/11/27 01:40:30;;;;;;;58.60;36.47;;;6.80;99.90;;;;;;5138979;27;20279;-47
2023/11/27 01:42:57;;;;;;;56.00;34.95;;;6.80;99.90;;;;;;5138920;27;20403;-48
2023/11/27 01:45:23;;;;;;;58.63;35.90;;;6.80;99.90;;;;;;5119798;27;20194;-45
2023/11/27 01:47:49;;;;;;;64.22;38.05;;;6.90;99.90;;;;;;5139169;27;20188;-46
2023/11/27 01:50:15;;;;;;;55.58;35.25;;;6.90;99.90;;;;;;5138968;27;20243;-49
2023/11/27 01:52:42;;;;;;;57.65;36.67;;;6.90;99.90;;;;;;5140059;27;20505;-48
2023/11/27 01:55:08;;;;;;;47.28;34.10;;;6.90;99.90;;;;;;5138271;27;20200;-47
2023/11/27 01:57:35;;;;;;;53.20;35.00;;;6.90;99.90;;;;;;5123073;27;20263;-46
2023/11/27 02:00:04;;;;;;;52.28;32.17;;;6.90;99.90;;;;;;5135936;27;20220;-55
2023/11/27 02:02:45;;;;;;;47.38;30.65;;;6.90;99.90;;;;;;5122934;27;20624;-47
2023/11/27 02:05:12;;;;;;;42.65;28.73;;;6.90;99.90;;;;;;5138538;27;20601;-47
2023/11/27 02:07:38;;;;;;;41.47;28.17;;;6.90;99.90;;;;;;5139435;27;20183;-50
2023/11/27 02:10:04;;;;;;;44.35;29.05;;;6.90;99.90;;;;;;5120704;27;20203;-47
2023/11/27 02:12:30;;;;;;;38.22;25.90;;;6.90;99.90;;;;;;5120647;27;20707;-45
2023/11/27 02:14:57;;;;;;;34.33;23.27;;;6.90;99.90;;;;;;5121775;27;20176;-48
2023/11/27 02:17:23;;;;;;;26.48;18.40;;;6.90;99.90;;;;;;5091148;27;20777;-48
2023/11/27 02:19:49;;;;;;;18.63;13.15;;;6.90;99.90;;;;;;5104427;27;20194;-46
2023/11/27 02:22:15;;;;;;;10.82;8.13;;;6.90;99.90;;;;;;5119053;27;20613;-44
2023/11/27 02:24:42;;;;;;;10.05;6.30;;;6.90;99.90;;;;;;5120797;27;20207;-50
2023/11/27 02:27:08;;;;;;;8.68;6.10;;;6.90;99.90;;;;;;5104019;27;20223;-45
2023/11/27 02:29:34;;;;;;;10.95;7.88;;;6.90;99.90;;;;;;5122682;27;20224;-52
2023/11/27 02:32:03;;;;;;;13.20;9.48;;;6.90;99.90;;;;;;5143765;27;20211;-46
2023/11/27 02:34:29;;;;;;;14.52;10.18;;;6.90;99.90;;;;;;5143150;27;20247;-46
2023/11/27 02:36:55;;;;;;;15.95;11.55;;;6.80;99.90;;;;;;5107163;27;20195;-46
2023/11/27 02:39:21;;;;;;;18.60;12.85;;;6.80;99.90;;;;;;5143252;27;20190;-49
2023/11/27 02:41:47;;;;;;;24.00;14.43;;;6.80;99.90;;;;;;5123335;27;20188;-49
2023/11/27 02:44:14;;;;;;;22.10;15.48;;;6.70;99.90;;;;;;5142042;27;20189;-48
2023/11/27 02:46:41;;;;;;;24.85;16.83;;;6.70;99.90;;;;;;5140769;27;20465;-51
2023/11/27 02:49:07;;;;;;;27.27;18.60;;;6.60;99.90;;;;;;5124829;27;20224;-50
2023/11/27 02:51:40;;;;;;;30.27;20.17;;;6.60;99.90;;;;;;5108401;27;20218;-50
2023/11/27 02:54:07;;;;;;;36.17;22.70;;;6.60;99.90;;;;;;5125604;27;20192;-51
2023/11/27 02:56:33;;;;;;;35.88;24.17;;;6.60;99.90;;;;;;5106330;27;20195;-47
2023/11/27 02:58:59;;;;;;;35.25;24.25;;;6.60;99.90;;;;;;5143596;27;20179;-47
2023/11/27 03:01:28;;;;;;;37.10;23.77;;;6.60;99.90;;;;;;5105999;27;20784;-49
2023/11/27 03:03:56;;;;;;;39.88;25.10;;;6.60;99.90;;;;;;5123743;27;21126;-48
2023/11/27 03:06:22;;;;;;;41.35;25.60;;;6.60;99.90;;;;;;5141885;27;20704;-47
2023/11/27 03:08:47;;;;;;;36.55;25.80;;;6.60;99.90;;;;;;5142015;27;20318;-48
2023/11/27 03:11:14;;;;;;;39.55;25.63;;;6.60;99.90;;;;;;5124024;27;20191;-49
2023/11/27 03:13:40;;;;;;;37.20;25.08;;;6.60;99.90;;;;;;5141743;27;20219;-50
2023/11/27 03:16:06;;;;;;;40.33;26.17;;;6.60;99.90;;;;;;5141386;27;20234;-46
2023/11/27 03:18:32;;;;;;;39.13;24.60;;;6.60;99.90;;;;;;5109327;27;20245;-44
2023/11/27 03:20:58;;;;;;;36.10;22.80;;;6.50;99.90;;;;;;5140773;27;20196;-48
2023/11/27 03:23:24;;;;;;;34.60;23.77;;;6.50;99.90;;;;;;5123413;27;20211;-46
2023/11/27 03:25:50;;;;;;;37.53;24.25;;;6.50;99.90;;;;;;5140196;27;20195;-52
2023/11/27 03:28:17;;;;;;;32.58;23.48;;;6.50;99.90;;;;;;5124053;27;20195;-48
2023/11/27 03:30:43;;;;;;;38.58;23.63;;;6.50;99.90;;;;;;5142480;27;20231;-46
2023/11/27 03:33:09;;;;;;;35.97;23.10;;;6.50;99.90;;;;;;5141145;27;20179;-48
2023/11/27 03:35:35;;;;;;;37.47;23.75;;;6.50;99.90;;;;;;5139923;27;20503;-47
2023/11/27 03:38:02;;;;;;;36.45;23.00;;;6.50;99.90;;;;;;5141450;27;20184;-46
2023/11/27 03:40:28;;;;;;;29.80;21.58;;;6.40;99.90;;;;;;5140281;27;20204;-51
2023/11/27 03:42:55;;;;;;;28.80;19.35;;;6.40;99.90;;;;;;5123490;27;20312;-51
2023/11/27 03:45:22;;;;;;;28.10;19.83;;;6.40;99.90;;;;;;5140721;27;20306;-48
2023/11/27 03:47:47;;;;;;;29.08;19.38;;;6.40;99.90;;;;;;5125309;27;20695;-43
2023/11/27 03:50:13;;;;;;;29.73;18.88;;;6.40;99.90;;;;;;5139536;27;20203;-47
2023/11/27 03:52:39;;;;;;;31.70;18.70;;;6.40;99.90;;;;;;5141332;27;20256;-47
2023/11/27 03:55:05;;;;;;;28.95;18.55;;;6.40;99.90;;;;;;5140164;27;20244;-49
2023/11/27 03:57:31;;;;;;;25.05;17.17;;;6.40;99.90;;;;;;5140759;27;20219;-47
2023/11/27 03:59:57;;;;;;;24.30;17.30;;;6.40;99.90;;;;;;5123641;27;20232;-48
2023/11/27 04:02:23;;;;;;;23.52;17.30;;;6.40;99.90;;;;;;5139027;27;20239;-44
2023/11/27 04:04:49;;;;;;;24.40;16.98;;;6.40;99.90;;;;;;5123038;27;20655;-44
2023/11/27 04:07:15;;;;;;;22.02;16.10;;;6.30;99.90;;;;;;5123142;27;20244;-46
2023/11/27 04:09:41;;;;;;;23.27;15.52;;;6.30;99.90;;;;;;5123549;27;20239;-46
2023/11/27 04:12:07;;;;;;;23.80;17.10;;;6.30;99.90;;;;;;5122923;27;20250;-45
2023/11/27 04:14:33;;;;;;;25.52;17.50;;;6.30;99.90;;;;;;5139982;27;20191;-47
2023/11/27 04:16:59;;;;;;;22.95;18.13;;;6.30;99.90;;;;;;5141318;27;20195;-47
2023/11/27 04:19:26;;;;;;;26.55;18.10;;;6.30;99.90;;;;;;5140041;27;20287;-49
2023/11/27 04:21:52;;;;;;;25.70;17.98;;;6.20;99.90;;;;;;5093016;27;20214;-51
2023/11/27 04:24:18;;;;;;;24.83;18.60;;;6.20;99.90;;;;;;5139799;27;20615;-51
2023/11/27 04:26:44;;;;;;;27.30;18.88;;;6.20;99.90;;;;;;5122124;27;20191;-49
2023/11/27 04:29:10;;;;;;;23.60;18.30;;;6.20;99.90;;;;;;5140704;27;20236;-45
2023/11/27 04:31:36;;;;;;;24.63;18.45;;;6.20;99.90;;;;;;5139107;27;20212;-48
2023/11/27 04:34:01;;;;;;;21.50;16.15;;;6.20;99.90;;;;;;5140122;27;20283;-52
2023/11/27 04:36:27;;;;;;;20.35;15.50;;;6.20;99.90;;;;;;5139773;27;20256;-48
2023/11/27 04:38:53;;;;;;;18.92;15.38;;;6.10;99.90;;;;;;5138938;27;20198;-46
2023/11/27 04:41:20;;;;;;;22.70;16.30;;;6.10;99.90;;;;;;5138223;27;20181;-48
2023/11/27 04:43:46;;;;;;;22.10;16.02;;;6.10;99.90;;;;;;5138720;27;20219;-46
2023/11/27 04:46:12;;;;;;;20.48;15.32;;;6.10;99.90;;;;;;5140182;27;20660;-47
2023/11/27 04:48:37;;;;;;;17.98;14.05;;;6.00;99.90;;;;;;5123102;27;20174;-45
2023/11/27 04:51:04;;;;;;;18.73;12.75;;;6.00;99.90;;;;;;5137340;27;20218;-47
2023/11/27 04:53:29;;;;;;;15.93;12.63;;;6.00;99.90;;;;;;5138806;27;20237;-47
2023/11/27 04:55:56;;;;;;;16.17;11.82;;;5.90;99.90;;;;;;5139238;27;20184;-47
2023/11/27 04:58:23;;;;;;;16.70;12.35;;;5.90;99.90;;;;;;5139065;27;20303;-49
2023/11/27 05:00:48;;;;;;;16.50;11.80;;;5.80;99.90;;;;;;5139417;27;20196;-47
2023/11/27 05:03:16;;;;;;;16.85;11.70;;;5.80;99.90;;;;;;5138797;27;20180;-44
2023/11/27 05:05:42;;;;;;;13.95;10.18;;;5.80;99.90;;;;;;5121471;27;20303;-51
2023/11/27 05:08:08;;;;;;;13.65;9.52;;;5.80;99.90;;;;;;5120928;27;20238;-47
2023/11/27 05:10:38;;;;;;;10.35;7.00;;;5.70;99.90;;;;;;5137450;27;20211;-49
2023/11/27 05:13:06;;;;;;;10.38;8.25;;;5.60;99.90;;;;;;5138984;27;20184;-47
2023/11/27 05:15:32;;;;;;;10.48;8.23;;;5.60;99.90;;;;;;5138266;27;20197;-48
2023/11/27 05:17:57;;;;;;;11.00;8.13;;;5.60;99.90;;;;;;5139367;27;21104;-48
2023/11/27 05:20:23;;;;;;;11.05;7.75;;;5.50;99.90;;;;;;5137984;27;20192;-46
2023/11/27 05:22:50;;;;;;;10.80;7.65;;;5.50;99.90;;;;;;5121691;27;20203;-50
2023/11/27 05:25:16;;;;;;;9.98;8.20;;;5.50;99.90;;;;;;5138406;27;20198;-49
2023/11/27 05:27:42;;;;;;;12.50;8.05;;;5.40;99.90;;;;;;5121364;27;20636;-48
2023/11/27 05:30:08;;;;;;;11.13;7.90;;;5.40;99.90;;;;;;5138440;27;20235;-50
2023/11/27 05:32:34;;;;;;;8.73;7.25;;;5.30;99.90;;;;;;5138784;27;20754;-48
2023/11/27 05:35:00;;;;;;;10.88;6.85;;;5.40;99.90;;;;;;5120803;27;20184;-48
2023/11/27 05:37:26;;;;;;;9.43;7.93;;;5.30;99.90;;;;;;5137078;27;20416;-49
2023/11/27 05:39:52;;;;;;;9.48;6.65;;;5.40;99.90;;;;;;5120944;27;20188;-49
2023/11/27 05:42:20;;;;;;;8.88;6.53;;;5.40;99.90;;;;;;5120995;27;20196;-46
2023/11/27 05:44:47;;;;;;;7.20;6.47;;;5.30;99.90;;;;;;5120671;27;20256;-52
2023/11/27 05:47:13;;;;;;;9.20;6.57;;;5.30;99.90;;;;;;5136570;27;20175;-48
2023/11/27 05:49:40;;;;;;;10.65;6.57;;;5.30;99.90;;;;;;5137031;27;20219;-49
2023/11/27 05:52:06;;;;;;;10.90;7.13;;;5.20;99.90;;;;;;5136736;27;20325;-48
2023/11/27 05:54:33;;;;;;;9.02;6.95;;;5.30;99.90;;;;;;5137590;27;20206;-48
2023/11/27 05:56:58;;;;;;;8.60;7.13;;;5.20;99.90;;;;;;5137845;27;20206;-49
2023/11/27 05:59:25;;;;;;;8.00;6.82;;;5.10;99.90;;;;;;5134995;27;20196;-50
2023/11/27 06:01:52;;;;;;;7.40;6.45;;;5.10;99.90;;;;;;5138807;27;20216;-53
2023/11/27 06:04:18;;;;;;;7.05;6.15;;;5.10;99.90;;;;;;5136152;27;20200;-48
2023/11/27 06:06:43;;;;;;;7.35;6.20;;;5.10;99.90;;;;;;5138184;27;20187;-50
2023/11/27 06:09:11;;;;;;;6.43;5.63;;;5.10;99.90;;;;;;5136435;27;20231;-51
2023/11/27 06:11:37;;;;;;;6.15;5.13;;;5.10;99.90;;;;;;5110812;27;20223;-48
2023/11/27 06:14:03;;;;;;;7.05;5.70;;;5.10;99.90;;;;;;5120347;27;20238;-47
2023/11/27 06:16:29;;;;;;;5.82;5.22;;;5.10;99.90;;;;;;5137520;27;20228;-47
2023/11/27 06:18:54;;;;;;;6.40;5.43;;;5.00;99.90;;;;;;5102888;27;20378;-46
2023/11/27 06:21:20;;;;;;;7.15;5.57;;;5.00;99.90;;;;;;5134635;27;20191;-50
2023/11/27 06:23:46;;;;;;;7.45;5.88;;;5.00;99.90;;;;;;5119930;27;20219;-51
2023/11/27 06:26:12;;;;;;;7.25;5.72;;;5.00;99.90;;;;;;5134785;27;20184;-50
2023/11/27 06:28:40;;;;;;;7.35;5.80;;;5.00;99.90;;;;;;5138112;27;20653;-51
2023/11/27 06:31:06;;;;;;;8.18;5.90;;;4.90;99.90;;;;;;5121011;27;20294;-47
2023/11/27 06:33:32;;;;;;;7.55;6.40;;;4.90;99.90;;;;;;5136471;27;20192;-47
2023/11/27 06:35:58;;;;;;;9.15;5.78;;;4.90;99.90;;;;;;5134739;27;20197;-49
2023/11/27 06:38:24;;;;;;;6.38;5.53;;;4.90;99.90;;;;;;5101285;27;20179;-50
2023/11/27 06:40:50;;;;;;;6.82;6.07;;;4.90;99.90;;;;;;5119271;27;20192;-47
2023/11/27 06:43:16;;;;;;;9.02;6.57;;;4.80;99.90;;;;;;5119999;27;20198;-51
2023/11/27 06:45:42;;;;;;;7.53;6.72;;;4.80;99.90;;;;;;5137406;27;20270;-50
2023/11/27 06:48:08;;;;;;;7.13;5.85;;;4.80;99.90;;;;;;5137355;27;20287;-46
2023/11/27 06:50:34;;;;;;;8.18;6.85;;;4.80;99.90;;;;;;5137263;27;20308;-49
2023/11/27 06:53:00;;;;;;;6.97;6.28;;;4.70;99.90;;;;;;5119454;27;20196;-48
2023/11/27 06:55:27;;;;;;;8.23;6.88;;;4.70;99.90;;;;;;5136255;27;20195;-47
2023/11/27 06:57:53;;;;;;;8.68;7.35;;;4.70;99.90;;;;;;5137253;27;20188;-46
2023/11/27 07:00:19;;;;;;;8.52;7.18;;;4.80;99.90;;;;;;5107445;27;20199;-48
2023/11/27 07:02:45;;;;;;;8.05;7.05;;;4.70;99.90;;;;;;5119832;27;20665;-47
2023/11/27 07:05:11;;;;;;;7.10;6.40;;;4.70;99.90;;;;;;5120171;27;20184;-50
2023/11/27 07:07:37;;;;;;;8.27;7.25;;;4.80;99.90;;;;;;5121371;27;20604;-46
2023/11/27 07:10:04;;;;;;;6.50;5.30;;;4.80;99.90;;;;;;5136022;27;20736;-48
2023/11/27 07:12:30;;;;;;;8.35;6.95;;;4.80;99.90;;;;;;5118440;27;20187;-49
2023/11/27 07:14:56;;;;;;;8.90;7.03;;;4.70;99.90;;;;;;5104468;27;20192;-48
2023/11/27 07:17:22;;;;;;;7.75;6.90;;;4.70;99.90;;;;;;5141212;27;20191;-48
2023/11/27 07:19:48;;;;;;;8.07;7.05;;;4.70;99.90;;;;;;5140509;27;20252;-50
2023/11/27 07:22:14;;;;;;;8.07;6.78;;;4.70;99.90;;;;;;5124207;27;20188;-52
2023/11/27 07:24:39;;;;;;;9.07;7.60;;;4.70;99.90;;;;;;5123422;27;20187;-49
2023/11/27 07:27:05;;;;;;;8.93;8.02;;;4.70;99.90;;;;;;5142281;27;20196;-49
2023/11/27 07:29:31;;;;;;;8.65;7.15;;;4.80;99.90;;;;;;5140312;27;20203;-48
2023/11/27 07:31:57;;;;;;;7.88;7.07;;;4.80;99.90;;;;;;5124609;27;20176;-49
2023/11/27 07:34:26;;;;;;;8.38;7.43;;;4.70;99.90;;;;;;5121514;27;20690;-49
2023/11/27 07:36:52;;;;;;;9.02;7.65;;;4.70;99.90;;;;;;5140615;27;20200;-47
2023/11/27 07:39:18;;;;;;;8.68;7.13;;;4.70;99.90;;;;;;5111068;27;20184;-53
2023/11/27 07:41:47;;;;;;;8.63;7.72;;;4.70;99.90;;;;;;5125024;27;20253;-51
2023/11/27 07:44:15;;;;;;;9.95;8.40;;;4.70;99.90;;;;;;5139570;27;20659;-51
2023/11/27 07:46:41;;;;;;;9.88;8.70;;;4.80;99.90;;;;;;5140021;27;20188;-48
2023/11/27 07:49:08;;;;;;;9.82;8.70;;;4.70;99.90;;;;;;5119597;27;20270;-47
2023/11/27 07:51:34;;;;;;;10.93;8.85;;;4.70;99.90;;;;;;5121371;27;20191;-48
2023/11/27 07:54:01;;;;;;;10.88;9.65;;;4.70;99.90;;;;;;5138832;27;20172;-51
2023/11/27 07:56:28;;;;;;;12.48;9.55;;;4.70;99.90;;;;;;5123520;27;20184;-51
2023/11/27 07:58:55;;;;;;;10.45;8.93;;;4.80;99.90;;;;;;5138783;27;20183;-48
2023/11/27 08:01:21;;;;;;;12.35;10.50;;;4.70;99.90;;;;;;5138803;27;20237;-51
2023/11/27 08:03:47;;;;;;;12.15;10.38;;;4.60;99.90;;;;;;5123596;27;20309;-49
2023/11/27 08:06:14;;;;;;;11.82;10.15;;;4.60;99.90;;;;;;5139428;27;20795;-53
2023/11/27 08:08:41;;;;;;;13.57;10.18;;;4.60;99.90;;;;;;5123417;27;21309;-49
2023/11/27 08:11:09;;;;;;;12.40;9.23;;;4.60;99.90;;;;;;5138625;27;20201;-54
2023/11/27 08:13:36;;;;;;;11.68;9.98;;;4.70;99.90;;;;;;5138515;27;20214;-48
2023/11/27 08:16:02;;;;;;;11.27;9.50;;;4.70;99.90;;;;;;5139615;27;20183;-47
2023/11/27 08:18:28;;;;;;;12.32;10.40;;;4.70;99.90;;;;;;5123208;27;20299;-53
2023/11/27 08:20:54;;;;;;;13.38;10.80;;;4.60;99.90;;;;;;5137421;27;20278;-48
2023/11/27 08:23:20;;;;;;;11.93;10.43;;;4.70;99.90;;;;;;5141324;27;20227;-48
2023/11/27 08:25:46;;;;;;;13.10;11.02;;;4.60;99.90;;;;;;5138882;27;20240;-49
2023/11/27 08:28:13;;;;;;;14.27;11.27;;;4.60;99.90;;;;;;5138425;27;20188;-50
2023/11/27 08:30:41;;;;;;;12.30;10.82;;;4.60;99.90;;;;;;5138010;27;20756;-52
2023/11/27 08:33:08;;;;;;;17.67;14.40;;;4.60;99.90;;;;;;5138091;27;21388;-48
2023/11/27 08:35:34;;;;;;;13.80;12.15;;;4.60;99.90;;;;;;5140402;27;20279;-53
2023/11/27 08:38:01;;;;;;;14.88;11.65;;;4.70;99.90;;;;;;5137737;27;20303;-51
2023/11/27 08:40:27;;;;;;;15.25;12.15;;;4.70;99.90;;;;;;5138560;27;20188;-50
2023/11/27 08:42:53;;;;;;;15.50;12.90;;;4.70;99.90;;;;;;5140046;27;21199;-51
2023/11/27 08:45:19;;;;;;;15.80;13.02;;;4.60;99.90;;;;;;5137729;27;20188;-47
2023/11/27 08:47:50;;;;;;;16.10;12.57;;;4.70;99.90;;;;;;5139729;27;20199;-47
2023/11/27 08:50:24;;;;;;;15.77;13.20;;;4.70;99.90;;;;;;5137916;27;20212;-47
2023/11/27 08:52:54;;;;;;;16.77;13.82;;;4.70;99.90;;;;;;5138051;27;20179;-47
2023/11/27 08:55:28;;;;;;;16.60;13.32;;;4.70;99.90;;;;;;5137271;27;20171;-47
2023/11/27 08:57:54;;;;;;;16.38;14.02;;;4.70;99.90;;;;;;5137426;27;20663;-46
2023/11/27 09:00:20;;;;;;;17.95;13.70;;;4.80;99.90;;;;;;5140242;27;20233;-45
2023/11/27 09:02:48;;;;;;;18.23;14.85;;;4.80;99.90;;;;;;5120792;27;20199;-48
2023/11/27 09:05:14;;;;;;;18.83;15.32;;;4.80;99.90;;;;;;5139272;27;20184;-50
2023/11/27 09:07:40;;;;;;;19.05;15.25;;;4.80;99.90;;;;;;5138901;27;20329;-49
2023/11/27 09:10:07;;;;;;;22.13;17.83;;;4.80;99.90;;;;;;5138064;27;20297;-46
2023/11/27 09:12:34;;;;;;;29.63;21.23;;;4.90;99.90;;;;;;5101878;27;20184;-48
2023/11/27 09:15:01;;;;;;;21.88;17.23;;;4.90;99.90;;;;;;5138997;27;20214;-52
2023/11/27 09:17:27;;;;;;;23.85;19.95;;;4.90;99.90;;;;;;5136370;27;20974;-56
2023/11/27 09:19:53;;;;;;;26.35;18.10;;;5.00;99.90;;;;;;5138149;27;20207;-44
2023/11/27 09:22:22;;;;;;;22.80;17.42;;;5.00;99.90;;;;;;5136706;27;21197;-48
2023/11/27 09:24:48;;;;;;;19.55;15.75;;;5.00;99.90;;;;;;5139599;27;20192;-46
2023/11/27 09:27:15;;;;;;;23.60;17.70;;;5.10;99.90;;;;;;5138493;27;20184;-47
2023/11/27 09:29:41;;;;;;;23.90;18.45;;;5.00;99.90;;;;;;5137059;27;20203;-47
2023/11/27 09:32:07;;;;;;;23.83;18.25;;;5.10;99.90;;;;;;5136895;27;20529;-48
2023/11/27 09:34:32;;;;;;;22.42;18.52;;;5.10;99.90;;;;;;5139672;27;20192;-53
2023/11/27 09:36:59;;;;;;;22.45;18.33;;;5.20;99.90;;;;;;5137549;27;20190;-48
2023/11/27 09:39:25;;;;;;;23.23;18.85;;;5.10;99.90;;;;;;5138165;27;20195;-50
2023/11/27 09:41:51;;;;;;;35.95;24.35;;;5.20;99.90;;;;;;5136463;27;20184;-45
2023/11/27 09:44:18;;;;;;;19.33;16.95;;;5.20;99.90;;;;;;5139118;27;20608;-49
2023/11/27 09:46:46;;;;;;;22.52;18.38;;;5.20;99.90;;;;;;5138106;27;20187;-44
2023/11/27 09:49:17;;;;;;;22.83;18.40;;;5.30;99.90;;;;;;5138685;27;20187;-45
2023/11/27 09:51:49;;;;;;;22.33;19.05;;;5.30;99.90;;;;;;5136698;27;20211;-46
2023/11/27 09:54:21;;;;;;;23.42;18.60;;;5.30;99.90;;;;;;5137311;27;20544;-47
2023/11/27 09:56:49;;;;;;;22.23;18.23;;;5.30;99.90;;;;;;5138605;27;20248;-46
2023/11/27 09:59:17;;;;;;;24.80;20.15;;;5.30;99.90;;;;;;5137628;27;20715;-55
2023/11/27 10:01:44;;;;;;;23.35;19.08;;;5.40;99.90;;;;;;5120168;27;20235;-49
2023/11/27 10:04:11;;;;;;;26.08;20.33;;;5.40;99.90;;;;;;5118506;27;20199;-49
2023/11/27 10:06:41;;;;;;;23.20;19.20;;;5.50;99.90;;;;;;5121307;27;20171;-50
2023/11/27 10:09:07;;;;;;;25.27;18.63;;;5.50;99.90;;;;;;5135956;27;20223;-49
2023/11/27 10:11:34;;;;;;;22.90;19.17;;;5.50;99.90;;;;;;5137345;27;20183;-49
2023/11/27 10:14:10;;;;;;;23.70;18.33;;;5.50;99.90;;;;;;5121291;27;20172;-46
2023/11/27 10:16:39;;;;;;;22.10;18.85;;;5.50;99.90;;;;;;5136401;27;20184;-47
2023/11/27 10:19:06;;;;;;;34.88;24.35;;;5.50;99.90;;;;;;5116640;27;20191;-45
2023/11/27 10:21:36;;;;;;;23.50;18.77;;;5.50;99.90;;;;;;5134549;27;20476;-45
2023/11/27 10:24:08;;;;;;;24.05;18.23;;;5.60;99.90;;;;;;5113497;27;20182;-45
2023/11/27 10:26:40;;;;;;;23.48;18.15;;;5.50;99.90;;;;;;5135727;27;20651;-45
2023/11/27 10:29:09;;;;;;;21.65;17.52;;;5.60;99.90;;;;;;5135898;27;20712;-45
2023/11/27 10:31:40;;;;;;;20.48;17.10;;;5.50;99.90;;;;;;5135422;27;20627;-50
2023/11/27 10:34:07;;;;;;;18.58;15.20;;;5.60;99.90;;;;;;5135508;27;20192;-47
2023/11/27 10:36:36;;;;;;;16.80;14.88;;;5.60;99.90;;;;;;5118086;27;20180;-48
2023/11/27 10:39:08;;;;;;;23.30;17.50;;;5.60;99.90;;;;;;5134281;27;20252;-53
2023/11/27 10:41:35;;;;;;;19.45;15.02;;;5.50;99.90;;;;;;5134564;27;20195;-48
2023/11/27 10:44:02;;;;;;;18.80;15.20;;;5.50;99.90;;;;;;5118134;27;20215;-53
2023/11/27 10:46:32;;;;;;;16.15;13.70;;;5.50;99.90;;;;;;5134199;27;20179;-54
2023/11/27 10:49:01;;;;;;;17.05;14.30;;;5.50;99.90;;;;;;5134264;27;20252;-48
2023/11/27 10:51:31;;;;;;;17.15;13.63;;;5.50;99.90;;;;;;5137327;27;20187;-53
2023/11/27 10:54:02;;;;;;;16.70;14.10;;;5.60;99.90;;;;;;5109535;27;20256;-47
2023/11/27 10:56:30;;;;;;;15.45;12.85;;;5.50;99.90;;;;;;5122790;27;20207;-50
2023/11/27 10:59:09;;;;;;;15.60;12.60;;;5.50;99.90;;;;;;5123516;27;20231;-47
2023/11/27 11:01:40;;;;;;;15.07;12.25;;;5.50;99.90;;;;;;5139109;27;20184;-48
2023/11/27 11:04:26;;;;;;;17.38;13.98;;;5.60;99.90;;;;;;5141679;27;20218;-47
2023/11/27 11:07:00;;;;;;;15.93;13.68;;;5.60;99.90;;;;;;5138952;27;20192;-48
2023/11/27 11:09:29;;;;;;;15.05;12.73;;;5.60;99.90;;;;;;5138360;27;20265;-47
2023/11/27 11:11:56;;;;;;;16.08;13.75;;;5.60;99.90;;;;;;5138931;27;20735;-50
2023/11/27 11:14:26;;;;;;;14.63;12.27;;;5.60;99.90;;;;;;5122643;27;20277;-48
2023/11/27 11:17:29;;;;;;;14.43;12.20;;;5.60;99.90;;;;;;5123449;27;20183;-48
2023/11/27 11:20:14;;;;;;;13.30;11.80;;;5.60;99.90;;;;;;5095222;27;20707;-51
2023/11/27 11:22:50;;;;;;;14.68;12.73;;;5.70;99.90;;;;;;5136978;27;20182;-49
2023/11/27 11:25:28;;;;;;;14.15;12.65;;;5.70;99.90;;;;;;5139487;27;20574;-46
2023/11/27 11:28:11;;;;;;;14.70;12.98;;;5.70;99.90;;;;;;5141227;27;20328;-47
2023/11/27 11:30:37;;;;;;;15.68;13.27;;;5.70;99.90;;;;;;5121808;27;20204;-46
2023/11/27 11:33:08;;;;;;;15.80;13.43;;;5.70;99.90;;;;;;5121932;27;20203;-50
2023/11/27 11:35:37;;;;;;;17.40;14.98;;;5.60;99.90;;;;;;5139703;27;20636;-43
2023/11/27 11:38:21;;;;;;;16.23;14.23;;;5.60;99.90;;;;;;5140011;27;20195;-43
2023/11/27 11:40:48;;;;;;;16.23;13.75;;;5.60;99.90;;;;;;5137475;27;20407;-44
2023/11/27 11:43:15;;;;;;;17.67;13.48;;;5.60;99.90;;;;;;5123409;27;20183;-45
2023/11/27 11:45:42;;;;;;;17.52;14.98;;;5.60;99.90;;;;;;5137884;27;20243;-40
2023/11/27 11:48:13;;;;;;;14.43;12.90;;;5.60;99.90;;;;;;5138791;27;20240;-42
2023/11/27 11:50:42;;;;;;;15.90;12.57;;;5.60;99.90;;;;;;5138143;27;20243;-39
2023/11/27 11:53:14;;;;;;;14.20;12.35;;;5.60;99.90;;;;;;5138424;27;20701;-47
2023/11/27 12:00:54;;;;;;;13.15;11.73;;;5.60;99.90;;;;;;5064338;28;20586;-37
2023/11/27 12:03:21;;;;;;;13.80;11.43;;;5.50;99.90;;;;;;5043438;28;20190;-36
2023/11/27 12:05:51;;;;;;;13.02;11.63;;;5.50;99.90;;;;;;5069700;28;20278;-37
2023/11/27 12:08:18;;;;;;;12.95;11.38;;;5.40;99.90;;;;;;5038441;28;20187;-37
2023/11/27 12:10:45;;;;;;;12.85;11.15;;;5.40;99.90;;;;;;5037563;28;20187;-36
2023/11/27 12:13:11;;;;;;;21.77;14.63;;;5.50;99.90;;;;;;5037913;28;20210;-36
2023/11/27 12:15:37;;;;;;;13.25;11.20;;;5.50;99.90;;;;;;5040821;28;20187;-40
2023/11/27 12:18:08;;;;;;;12.32;10.52;;;5.50;99.90;;;;;;5035676;28;20183;-50
2023/11/27 12:20:38;;;;;;;12.05;10.38;;;5.50;99.90;;;;;;5034876;28;20226;-58
2023/11/27 12:23:06;;;;;;;11.63;9.45;;;5.40;99.90;;;;;;5036394;28;20188;-54
2023/11/27 12:25:32;;;;;;;11.30;9.88;;;5.40;99.90;;;;;;5036554;28;20183;-54
2023/11/27 12:27:58;;;;;;;11.25;10.05;;;5.40;99.90;;;;;;5036259;28;20203;-56
2023/11/27 12:30:24;;;;;;;9.93;8.93;;;5.40;99.90;;;;;;5036068;28;20214;-53
2023/11/27 12:32:51;;;;;;;11.10;9.68;;;5.40;99.90;;;;;;5036341;28;20655;-57
2023/11/27 12:35:18;;;;;;;10.43;9.10;;;5.40;99.90;;;;;;5034015;28;20553;-53
2023/11/27 12:37:49;;;;;;;10.10;9.02;;;5.40;99.90;;;;;;5035128;28;20290;-53
2023/11/27 12:40:19;;;;;;;9.40;8.10;;;5.40;99.90;;;;;;5036777;28;20207;-52
2023/11/27 12:42:51;;;;;;;8.15;7.35;;;5.40;99.90;;;;;;5034862;28;20190;-50
2023/11/27 12:45:21;;;;;;;9.93;7.53;;;5.40;99.90;;;;;;5036678;28;20175;-56